Time;durP1;ratioP1;P1;durP2;ratioP2;P2;SDS_P1;SDS_P2;PMS_P1;PMS_P2;Temp;Humidity;BMP_temperature;BMP_pressure;BME280_temperature;BME280_humidity;BME280_pressure;Samples;Min_cycle;Max_cycle;Signal;HPM_P1;HPM_P2
2021/12/16 00:01:59;;;;;;;114.82;67.20;;;;;;;;;;5024515;28;20052;-60
2021/12/16 00:10:19;;;;;;;113.07;64.30;;;;;;;;;;5022352;28;20038;-59
2021/12/16 00:32:27;;;;;;;122.53;65.13;;;;;;;;;;5025705;28;20026;-62
2021/12/16 00:34:41;;;;;;;123.85;66.53;;;;;;;;;;5011877;28;20512;-63
2021/12/16 00:37:06;;;;;;;132.93;71.10;;;;;;;;;;5017091;28;20065;-63
2021/12/16 00:39:33;;;;;;;126.68;66.70;;;;;;;;;;5031826;28;20013;-62
2021/12/16 00:42:05;;;;;;;133.02;65.10;;;;;;;;;;5022736;28;20037;-62
2021/12/16 00:47:25;;;;;;;130.27;70.45;;;;;;;;;;5015567;28;20037;-61
2021/12/16 00:49:50;;;;;;;122.38;64.90;;;;;;;;;;5032471;28;20029;-62
2021/12/16 00:55:14;;;;;;;143.45;66.32;;;;;;;;;;5011059;28;20492;-62
2021/12/16 00:57:41;;;;;;;133.90;63.35;;;;;;;;;;5022561;28;20105;-62
2021/12/16 01:00:10;;;;;;;129.73;62.78;;;;;;;;;;5013404;28;20105;-62
2021/12/16 01:34:49;;;;;;;149.60;64.13;;;;;;;;;;5031690;28;20491;-62
2021/12/16 01:42:46;;;;;;;166.75;73.43;;;;;;;;;;5010805;28;20486;-62
2021/12/16 01:50:41;;;;;;;162.30;71.97;;;;;;;;;;5010377;28;20487;-63
2021/12/16 01:55:59;;;;;;;165.85;71.65;;;;;;;;;;5018659;28;20084;-61
2021/12/16 01:58:28;;;;;;;176.45;77.90;;;;;;;;;;5050904;28;20051;-61
2021/12/16 02:01:11;;;;;;;160.18;70.18;;;;;;;;;;5043767;28;20171;-61
2021/12/16 02:03:45;;;;;;;186.00;76.72;;;;;;;;;;5031316;28;20030;-61
2021/12/16 02:06:26;;;;;;;166.45;67.22;;;;;;;;;;5029633;28;20057;-61
2021/12/16 02:08:52;;;;;;;181.40;72.30;;;;;;;;;;5031510;28;20017;-61
2021/12/16 02:11:32;;;;;;;200.90;77.13;;;;;;;;;;5029820;28;20405;-61
2021/12/16 02:35:25;;;;;;;184.45;78.05;;;;;;;;;;5029541;28;20037;-62
2021/12/16 02:37:51;;;;;;;211.50;81.22;;;;;;;;;;5011274;28;20132;-62
2021/12/16 02:40:17;;;;;;;187.38;73.22;;;;;;;;;;5010040;28;20492;-62
2021/12/16 02:42:57;;;;;;;179.57;71.53;;;;;;;;;;5010843;28;20101;-62
2021/12/16 02:50:52;;;;;;;162.98;74.40;;;;;;;;;;5031394;28;20404;-61
2021/12/16 02:53:17;;;;;;;187.60;77.30;;;;;;;;;;5035023;28;20030;-61
2021/12/16 02:55:42;;;;;;;157.98;73.22;;;;;;;;;;5030864;28;20052;-61
2021/12/16 02:58:08;;;;;;;176.43;69.50;;;;;;;;;;5014319;28;20049;-61
2021/12/16 03:00:37;;;;;;;170.65;70.43;;;;;;;;;;5013355;28;20402;-61
2021/12/16 03:03:02;;;;;;;178.73;69.90;;;;;;;;;;5014928;28;20076;-62
2021/12/16 03:05:28;;;;;;;165.10;72.97;;;;;;;;;;5012953;28;20436;-62
2021/12/16 03:07:53;;;;;;;180.13;70.88;;;;;;;;;;5033719;28;20452;-62
2021/12/16 03:13:10;;;;;;;163.57;67.35;;;;;;;;;;5026049;28;20034;-62
2021/12/16 03:18:35;;;;;;;164.20;70.80;;;;;;;;;;5034056;28;20033;-61
2021/12/16 03:21:13;;;;;;;178.45;68.25;;;;;;;;;;5032292;28;20041;-61
2021/12/16 03:29:28;;;;;;;167.50;71.30;;;;;;;;;;5012717;28;20083;-60
2021/12/16 03:34:41;;;;;;;163.88;66.50;;;;;;;;;;5012797;28;20037;-60
2021/12/16 03:37:15;;;;;;;157.57;69.00;;;;;;;;;;5028871;28;20530;-61
2021/12/16 03:39:48;;;;;;;160.65;65.47;;;;;;;;;;5032320;28;20026;-60
2021/12/16 03:42:15;;;;;;;174.63;78.07;;;;;;;;;;5026241;28;20022;-60
2021/12/16 03:44:52;;;;;;;169.98;70.07;;;;;;;;;;5021094;28;20053;-60
2021/12/16 03:47:19;;;;;;;161.70;68.10;;;;;;;;;;5017255;28;20101;-60
2021/12/16 03:49:44;;;;;;;155.10;65.25;;;;;;;;;;5012173;28;20056;-60
2021/12/16 03:52:09;;;;;;;168.68;71.57;;;;;;;;;;5013893;28;20017;-60
2021/12/16 03:54:41;;;;;;;142.82;64.05;;;;;;;;;;5018740;28;20512;-60
2021/12/16 03:57:07;;;;;;;144.07;63.75;;;;;;;;;;5017902;28;20072;-60
2021/12/16 03:59:33;;;;;;;150.05;67.18;;;;;;;;;;5012180;28;20034;-60
2021/12/16 04:02:01;;;;;;;133.55;61.25;;;;;;;;;;5013626;28;20026;-60
2021/12/16 04:04:26;;;;;;;142.37;67.20;;;;;;;;;;5011946;28;20038;-60
2021/12/16 04:06:53;;;;;;;149.65;59.28;;;;;;;;;;5025894;28;20087;-60
2021/12/16 04:09:18;;;;;;;151.23;68.78;;;;;;;;;;5032032;28;20054;-60
2021/12/16 04:11:51;;;;;;;154.65;63.17;;;;;;;;;;5032600;28;20435;-60
2021/12/16 04:14:16;;;;;;;141.43;59.65;;;;;;;;;;5031752;28;20380;-60
2021/12/16 04:16:45;;;;;;;152.50;66.70;;;;;;;;;;5021459;28;20006;-60
2021/12/16 04:19:11;;;;;;;;;;;;;;;;;;5012780;28;20018;-60
2021/12/16 04:21:38;;;;;;;148.13;65.03;;;;;;;;;;5012995;28;19912;-61
2021/12/16 04:24:04;;;;;;;145.65;62.65;;;;;;;;;;5012587;28;20045;-60
2021/12/16 04:26:30;;;;;;;148.18;58.28;;;;;;;;;;5022351;28;20010;-60
2021/12/16 04:28:56;;;;;;;132.38;58.83;;;;;;;;;;5032552;28;20024;-61
2021/12/16 04:31:21;;;;;;;151.45;64.63;;;;;;;;;;5025075;28;20030;-61
2021/12/16 04:33:47;;;;;;;147.45;66.43;;;;;;;;;;5028126;28;20392;-61
2021/12/16 04:36:13;;;;;;;133.17;59.37;;;;;;;;;;5024897;28;20026;-61
2021/12/16 04:38:38;;;;;;;133.55;58.30;;;;;;;;;;5012973;28;20441;-60
2021/12/16 04:41:05;;;;;;;159.07;63.35;;;;;;;;;;5011536;28;20516;-61
2021/12/16 04:43:39;;;;;;;146.52;59.97;;;;;;;;;;5024492;28;20057;-62
2021/12/16 04:46:05;;;;;;;159.23;62.58;;;;;;;;;;5025325;28;20081;-61
2021/12/16 04:48:30;;;;;;;147.38;57.47;;;;;;;;;;5012674;28;20485;-61
2021/12/16 04:50:55;;;;;;;161.87;67.20;;;;;;;;;;5011795;28;20033;-61
2021/12/16 04:53:20;;;;;;;148.55;60.13;;;;;;;;;;5025556;28;20490;-61
2021/12/16 04:55:46;;;;;;;140.95;61.00;;;;;;;;;;5027162;28;20056;-61
2021/12/16 04:58:11;;;;;;;156.65;65.22;;;;;;;;;;5012575;28;20014;-61
2021/12/16 05:00:36;;;;;;;151.73;61.50;;;;;;;;;;5010894;28;20045;-62
2021/12/16 05:03:01;;;;;;;151.73;60.92;;;;;;;;;;5047401;28;20025;-62
2021/12/16 05:05:26;;;;;;;146.43;59.03;;;;;;;;;;5029523;28;20041;-61
2021/12/16 05:07:52;;;;;;;151.15;57.70;;;;;;;;;;5014877;28;20441;-62
2021/12/16 05:10:18;;;;;;;138.00;57.93;;;;;;;;;;5010879;28;20188;-61
2021/12/16 05:12:46;;;;;;;156.43;63.38;;;;;;;;;;5011905;28;21071;-60
2021/12/16 05:15:14;;;;;;;158.07;58.00;;;;;;;;;;5010898;28;20044;-60
2021/12/16 05:17:43;;;;;;;167.98;62.15;;;;;;;;;;5029603;28;20033;-60
2021/12/16 05:20:11;;;;;;;147.57;63.45;;;;;;;;;;5029556;28;20037;-60
2021/12/16 05:25:36;;;;;;;156.68;63.65;;;;;;;;;;5030298;28;20052;-60
2021/12/16 05:28:03;;;;;;;171.45;68.18;;;;;;;;;;5011957;28;20032;-60
2021/12/16 05:30:28;;;;;;;158.32;58.65;;;;;;;;;;5010433;28;20085;-60
2021/12/16 05:32:54;;;;;;;142.43;61.42;;;;;;;;;;5022041;28;20104;-60
2021/12/16 05:35:20;;;;;;;166.75;62.80;;;;;;;;;;5018410;28;20048;-60
2021/12/16 05:37:46;;;;;;;143.15;60.92;;;;;;;;;;5030815;28;20044;-57
2021/12/16 05:40:12;;;;;;;141.27;57.60;;;;;;;;;;5030130;28;20037;-57
2021/12/16 05:42:37;;;;;;;149.55;58.25;;;;;;;;;;5024755;28;20537;-57
2021/12/16 05:45:03;;;;;;;153.90;59.78;;;;;;;;;;5022888;28;20124;-57
2021/12/16 05:47:28;;;;;;;141.57;56.67;;;;;;;;;;5020201;28;20009;-57
2021/12/16 05:49:54;;;;;;;151.45;57.15;;;;;;;;;;5020216;28;20378;-57
2021/12/16 05:52:19;;;;;;;159.33;62.07;;;;;;;;;;5020250;28;20049;-58
2021/12/16 05:54:44;;;;;;;160.07;58.88;;;;;;;;;;5019118;28;20478;-57
2021/12/16 05:57:09;;;;;;;169.70;59.30;;;;;;;;;;5021686;28;20033;-57
2021/12/16 05:59:34;;;;;;;165.18;58.78;;;;;;;;;;5018307;28;20883;-58
2021/12/16 06:02:00;;;;;;;158.45;59.17;;;;;;;;;;5013410;28;20022;-58
2021/12/16 06:04:25;;;;;;;174.20;61.17;;;;;;;;;;5009901;28;20044;-58
2021/12/16 06:06:50;;;;;;;175.37;61.10;;;;;;;;;;5011409;28;20045;-57
2021/12/16 06:09:15;;;;;;;149.50;55.93;;;;;;;;;;5010079;28;20018;-57
2021/12/16 06:11:43;;;;;;;150.00;55.80;;;;;;;;;;5010702;28;20449;-57
2021/12/16 06:14:17;;;;;;;172.43;58.22;;;;;;;;;;5009930;28;20478;-58
2021/12/16 06:27:41;;;;;;;185.50;61.53;;;;;;;;;;5021352;28;20045;-57
2021/12/16 06:30:09;;;;;;;156.27;61.95;;;;;;;;;;5017612;28;20046;-57
2021/12/16 06:32:34;;;;;;;192.50;63.53;;;;;;;;;;5018173;28;20059;-58
2021/12/16 06:35:00;;;;;;;235.38;62.03;;;;;;;;;;5019917;28;20065;-57
2021/12/16 06:37:25;;;;;;;255.90;67.28;;;;;;;;;;5019247;28;20022;-58
2021/12/16 06:39:51;;;;;;;371.50;65.32;;;;;;;;;;5019263;28;20037;-58
2021/12/16 06:42:16;;;;;;;369.52;64.13;;;;;;;;;;5021087;28;20026;-57
2021/12/16 06:44:49;;;;;;;290.58;68.47;;;;;;;;;;5017634;28;20555;-57
2021/12/16 06:47:17;;;;;;;297.70;66.47;;;;;;;;;;5017831;28;20433;-58
2021/12/16 06:49:45;;;;;;;395.33;67.37;;;;;;;;;;5014589;28;20042;-57
2021/12/16 06:52:14;;;;;;;225.85;65.13;;;;;;;;;;5021615;28;20440;-57
2021/12/16 06:55:08;;;;;;;350.50;65.38;;;;;;;;;;5019096;28;20493;-58
2021/12/16 07:00:06;;;;;;;336.20;65.32;;;;;;;;;;5018991;28;20057;-57
2021/12/16 07:03:18;;;;;;;280.40;61.83;;;;;;;;;;5019758;28;20022;-58
2021/12/16 07:05:20;;;;;;;210.40;58.88;;;;;;;;;;5010418;28;20056;-58
2021/12/16 07:07:46;;;;;;;188.85;56.22;;;;;;;;;;5018997;28;20018;-57
2021/12/16 07:10:12;;;;;;;207.48;57.65;;;;;;;;;;5018662;28;20041;-57
2021/12/16 07:12:39;;;;;;;367.58;61.72;;;;;;;;;;5020339;28;20025;-57
2021/12/16 07:15:09;;;;;;;237.15;57.08;;;;;;;;;;5017808;28;20038;-57
2021/12/16 07:17:34;;;;;;;257.65;64.00;;;;;;;;;;5030108;28;20021;-57
2021/12/16 07:19:59;;;;;;;332.58;70.47;;;;;;;;;;5029244;28;20180;-57
2021/12/16 07:22:24;;;;;;;212.87;56.10;;;;;;;;;;5030312;28;20036;-57
2021/12/16 07:24:49;;;;;;;191.90;50.63;;;;;;;;;;5028663;28;20117;-57
2021/12/16 07:27:15;;;;;;;156.50;49.83;;;;;;;;;;5030143;28;20024;-58
2021/12/16 07:29:40;;;;;;;253.48;57.47;;;;;;;;;;5027321;28;20041;-58
2021/12/16 07:32:06;;;;;;;188.35;52.10;;;;;;;;;;5033640;28;20028;-57
2021/12/16 07:34:31;;;;;;;164.00;54.88;;;;;;;;;;5032059;28;20550;-57
2021/12/16 07:36:59;;;;;;;248.23;60.88;;;;;;;;;;5033902;28;20026;-57
2021/12/16 07:39:29;;;;;;;311.67;62.75;;;;;;;;;;5032238;28;20029;-57
2021/12/16 07:41:55;;;;;;;296.23;64.35;;;;;;;;;;5033909;28;20045;-57
2021/12/16 07:44:21;;;;;;;213.52;64.63;;;;;;;;;;5032313;28;20117;-58
2021/12/16 07:46:47;;;;;;;188.02;55.08;;;;;;;;;;5033642;28;20136;-57
2021/12/16 07:49:15;;;;;;;299.50;62.38;;;;;;;;;;5031994;28;20026;-60
2021/12/16 07:51:41;;;;;;;244.57;61.45;;;;;;;;;;5033483;28;20071;-57
2021/12/16 07:54:07;;;;;;;257.20;64.03;;;;;;;;;;5031449;28;20060;-57
2021/12/16 07:56:32;;;;;;;269.13;62.58;;;;;;;;;;5033656;28;20017;-57
2021/12/16 07:58:58;;;;;;;282.00;63.58;;;;;;;;;;5033925;28;20018;-58
2021/12/16 08:01:24;;;;;;;256.98;60.58;;;;;;;;;;5031328;28;20058;-57
2021/12/16 08:03:50;;;;;;;289.13;65.47;;;;;;;;;;5033662;28;20384;-58
2021/12/16 08:06:21;;;;;;;405.45;70.05;;;;;;;;;;5031996;28;20034;-57
2021/12/16 08:08:46;;;;;;;272.58;62.75;;;;;;;;;;5033095;28;20025;-57
2021/12/16 08:11:11;;;;;;;236.05;57.83;;;;;;;;;;5031927;28;20542;-57
2021/12/16 08:13:37;;;;;;;325.15;60.80;;;;;;;;;;5033147;28;20435;-58
2021/12/16 08:16:02;;;;;;;289.53;60.27;;;;;;;;;;5031337;28;20128;-58
2021/12/16 08:18:28;;;;;;;333.52;61.00;;;;;;;;;;5033173;28;20017;-57
2021/12/16 08:20:53;;;;;;;222.82;54.35;;;;;;;;;;5031874;28;20044;-57
2021/12/16 08:23:18;;;;;;;221.05;53.00;;;;;;;;;;5033214;28;20014;-58
2021/12/16 08:25:43;;;;;;;244.57;56.33;;;;;;;;;;5031181;28;20493;-57
2021/12/16 08:28:09;;;;;;;296.38;58.10;;;;;;;;;;5033268;28;20104;-58
2021/12/16 08:30:36;;;;;;;281.87;56.03;;;;;;;;;;5031299;28;20045;-57
2021/12/16 08:33:05;;;;;;;357.80;62.10;;;;;;;;;;5032908;28;20882;-57
2021/12/16 08:35:32;;;;;;;296.23;59.72;;;;;;;;;;5031199;28;20080;-57
2021/12/16 08:37:57;;;;;;;316.17;64.88;;;;;;;;;;5032984;28;20071;-57
2021/12/16 08:40:22;;;;;;;319.90;58.35;;;;;;;;;;5030827;28;20120;-58
2021/12/16 08:42:48;;;;;;;246.23;54.78;;;;;;;;;;5032717;28;20017;-57
2021/12/16 08:45:15;;;;;;;260.48;55.00;;;;;;;;;;5031146;28;20038;-58
2021/12/16 08:47:41;;;;;;;313.58;58.80;;;;;;;;;;5032071;28;20024;-57
2021/12/16 08:50:07;;;;;;;283.90;60.15;;;;;;;;;;5031157;28;20037;-57
2021/12/16 08:52:32;;;;;;;293.67;55.28;;;;;;;;;;5032153;28;20056;-57
2021/12/16 08:54:59;;;;;;;330.33;59.90;;;;;;;;;;5030385;28;20468;-57
2021/12/16 08:57:25;;;;;;;224.13;50.28;;;;;;;;;;5032531;28;20034;-58
2021/12/16 08:59:50;;;;;;;202.07;52.95;;;;;;;;;;5030748;28;20113;-57
2021/12/16 09:02:17;;;;;;;195.43;55.05;;;;;;;;;;5032244;28;20033;-57
2021/12/16 09:04:42;;;;;;;208.98;56.08;;;;;;;;;;5030921;28;20370;-57
2021/12/16 09:07:09;;;;;;;183.82;57.50;;;;;;;;;;5032173;28;20025;-57
2021/12/16 09:09:35;;;;;;;202.80;52.15;;;;;;;;;;5030138;28;20413;-57
2021/12/16 09:12:15;;;;;;;251.32;50.60;;;;;;;;;;5032220;28;20033;-57
2021/12/16 09:14:41;;;;;;;256.58;51.53;;;;;;;;;;5030376;28;20108;-57
2021/12/16 09:17:13;;;;;;;194.90;52.35;;;;;;;;;;5032007;28;20055;-57
2021/12/16 09:19:40;;;;;;;218.52;55.72;;;;;;;;;;5030440;28;20497;-57
2021/12/16 09:22:05;;;;;;;263.10;59.40;;;;;;;;;;5031947;28;20021;-57
2021/12/16 09:24:30;;;;;;;196.00;57.40;;;;;;;;;;5029914;28;20113;-57
2021/12/16 09:26:56;;;;;;;210.38;59.53;;;;;;;;;;5031779;28;20056;-57
2021/12/16 09:29:21;;;;;;;229.23;54.17;;;;;;;;;;5030170;28;20400;-58
2021/12/16 09:31:46;;;;;;;254.75;56.80;;;;;;;;;;5031527;28;20033;-57
2021/12/16 09:34:11;;;;;;;227.73;55.95;;;;;;;;;;5030489;28;20028;-58
2021/12/16 09:36:38;;;;;;;338.48;60.13;;;;;;;;;;5031513;28;20033;-58
2021/12/16 09:39:06;;;;;;;293.33;55.55;;;;;;;;;;5029822;28;20465;-57
2021/12/16 09:41:31;;;;;;;225.18;54.65;;;;;;;;;;5031433;28;20080;-58
2021/12/16 09:43:57;;;;;;;233.05;51.90;;;;;;;;;;5025201;28;20484;-58
2021/12/16 09:46:24;;;;;;;203.93;51.00;;;;;;;;;;5019220;28;20044;-57
2021/12/16 09:48:49;;;;;;;160.40;48.45;;;;;;;;;;5019267;28;20105;-58
2021/12/16 09:51:21;;;;;;;157.50;47.88;;;;;;;;;;5011384;28;20117;-58
2021/12/16 09:53:46;;;;;;;151.38;48.95;;;;;;;;;;5030623;28;20513;-58
2021/12/16 09:56:11;;;;;;;271.40;51.25;;;;;;;;;;5029597;28;20128;-58
2021/12/16 09:58:39;;;;;;;162.75;48.50;;;;;;;;;;5031155;28;20067;-58
2021/12/16 10:01:05;;;;;;;227.75;50.53;;;;;;;;;;5028797;28;20029;-57
2021/12/16 10:03:31;;;;;;;211.00;49.92;;;;;;;;;;5030816;28;20030;-57
2021/12/16 10:05:57;;;;;;;220.77;50.83;;;;;;;;;;5029884;28;20029;-57
2021/12/16 10:08:22;;;;;;;216.35;53.00;;;;;;;;;;5030820;28;20021;-57
2021/12/16 10:10:47;;;;;;;212.27;46.65;;;;;;;;;;5029634;28;20087;-57
2021/12/16 10:13:21;;;;;;;201.27;48.80;;;;;;;;;;5031153;28;20063;-57
2021/12/16 10:18:29;;;;;;;204.27;44.70;;;;;;;;;;5031089;28;20026;-57
2021/12/16 10:20:57;;;;;;;201.95;44.72;;;;;;;;;;5028366;28;20488;-58
2021/12/16 10:23:31;;;;;;;207.20;40.20;;;;;;;;;;5030448;28;20079;-58
2021/12/16 10:26:01;;;;;;;165.18;44.08;;;;;;;;;;5029288;28;20037;-57
2021/12/16 10:28:30;;;;;;;143.88;43.13;;;;;;;;;;5030024;28;20528;-58
2021/12/16 10:31:04;;;;;;;195.73;43.85;;;;;;;;;;5029047;28;20624;-58
2021/12/16 10:33:35;;;;;;;215.55;50.63;;;;;;;;;;5030892;28;20067;-58
2021/12/16 10:36:06;;;;;;;171.85;43.75;;;;;;;;;;5029379;28;20452;-57
2021/12/16 10:38:36;;;;;;;180.20;44.30;;;;;;;;;;5029869;28;20389;-57
2021/12/16 10:41:03;;;;;;;154.93;41.85;;;;;;;;;;5029365;28;20064;-58
2021/12/16 10:43:30;;;;;;;145.05;39.97;;;;;;;;;;5025977;28;20527;-57
2021/12/16 10:46:01;;;;;;;113.78;37.78;;;;;;;;;;5009395;28;20057;-57
2021/12/16 10:48:34;;;;;;;108.22;37.45;;;;;;;;;;5011060;28;20026;-58
2021/12/16 10:51:16;;;;;;;141.68;42.60;;;;;;;;;;5009427;28;20397;-57
2021/12/16 10:53:47;;;;;;;137.60;40.60;;;;;;;;;;5010616;28;20018;-57
2021/12/16 10:56:12;;;;;;;103.75;41.90;;;;;;;;;;5009326;28;20501;-58
2021/12/16 10:58:53;;;;;;;132.80;43.22;;;;;;;;;;5010810;28;20025;-57
2021/12/16 11:01:30;;;;;;;135.43;44.30;;;;;;;;;;5009225;28;20057;-57
2021/12/16 11:03:55;;;;;;;131.10;41.17;;;;;;;;;;5011689;28;20022;-57
2021/12/16 11:06:28;;;;;;;121.97;41.83;;;;;;;;;;5014767;28;20028;-58
2021/12/16 11:08:54;;;;;;;103.75;38.92;;;;;;;;;;5034002;28;20075;-58
2021/12/16 11:11:27;;;;;;;103.35;40.88;;;;;;;;;;5032700;28;20034;-57
2021/12/16 11:14:01;;;;;;;107.18;42.05;;;;;;;;;;5022179;28;20010;-58
2021/12/16 11:16:31;;;;;;;115.72;43.72;;;;;;;;;;5020211;28;20072;-57
2021/12/16 11:18:56;;;;;;;133.52;43.53;;;;;;;;;;5033927;28;20076;-57
2021/12/16 11:21:21;;;;;;;132.20;44.53;;;;;;;;;;5032255;28;20041;-58
2021/12/16 11:23:50;;;;;;;133.82;45.20;;;;;;;;;;5034222;28;20428;-58
2021/12/16 11:26:18;;;;;;;131.75;47.63;;;;;;;;;;5021993;28;20129;-57
2021/12/16 11:28:44;;;;;;;127.53;45.33;;;;;;;;;;5013613;28;20030;-58
2021/12/16 11:31:17;;;;;;;116.63;43.60;;;;;;;;;;5013382;28;20030;-58
2021/12/16 11:33:46;;;;;;;124.78;45.65;;;;;;;;;;5014363;28;20532;-57
2021/12/16 11:36:11;;;;;;;98.05;42.63;;;;;;;;;;5012262;28;20030;-57
2021/12/16 11:38:44;;;;;;;108.38;42.28;;;;;;;;;;5026389;28;20082;-57
2021/12/16 11:41:15;;;;;;;102.85;39.40;;;;;;;;;;5032458;28;20044;-57
2021/12/16 11:43:43;;;;;;;113.85;45.80;;;;;;;;;;5033204;28;20542;-57
2021/12/16 11:46:14;;;;;;;102.68;43.55;;;;;;;;;;5032485;28;20164;-58
2021/12/16 11:48:40;;;;;;;114.28;47.78;;;;;;;;;;5033554;28;20156;-57
2021/12/16 11:51:11;;;;;;;110.65;43.25;;;;;;;;;;5032065;28;20112;-57
2021/12/16 11:53:38;;;;;;;97.40;44.47;;;;;;;;;;5033489;28;20017;-57
2021/12/16 11:56:03;;;;;;;109.10;43.95;;;;;;;;;;5031855;28;20087;-57
2021/12/16 11:58:29;;;;;;;108.67;42.57;;;;;;;;;;5033075;28;20094;-58
2021/12/16 12:00:54;;;;;;;116.22;42.83;;;;;;;;;;5032151;28;20527;-57
2021/12/16 12:03:19;;;;;;;95.90;41.50;;;;;;;;;;5033643;28;20041;-58
2021/12/16 12:05:46;;;;;;;103.65;44.08;;;;;;;;;;5031871;28;20448;-57
2021/12/16 12:08:21;;;;;;;106.07;41.50;;;;;;;;;;5033368;28;20515;-58
2021/12/16 12:10:47;;;;;;;99.70;41.67;;;;;;;;;;5031818;28;20099;-57
2021/12/16 12:13:14;;;;;;;103.30;42.13;;;;;;;;;;5033344;28;20071;-57
2021/12/16 12:15:58;;;;;;;95.53;36.42;;;;;;;;;;5031202;28;20484;-58
2021/12/16 12:18:32;;;;;;;126.07;42.10;;;;;;;;;;5033104;28;20496;-57
2021/12/16 12:21:16;;;;;;;103.65;40.33;;;;;;;;;;5031534;28;20413;-57
2021/12/16 12:23:41;;;;;;;107.53;43.03;;;;;;;;;;5032904;28;20021;-58
2021/12/16 12:26:08;;;;;;;122.05;44.20;;;;;;;;;;5031646;28;20044;-57
2021/12/16 12:28:33;;;;;;;114.43;43.63;;;;;;;;;;5032563;28;20017;-57
2021/12/16 12:30:58;;;;;;;114.93;44.15;;;;;;;;;;5030450;28;20463;-57
2021/12/16 12:33:24;;;;;;;117.25;43.72;;;;;;;;;;5024064;28;20017;-57
2021/12/16 12:35:49;;;;;;;98.75;38.15;;;;;;;;;;5031049;28;20033;-58
2021/12/16 12:38:14;;;;;;;87.07;36.08;;;;;;;;;;5031352;28;20022;-58
2021/12/16 12:40:40;;;;;;;91.90;37.90;;;;;;;;;;5031135;28;20452;-57
2021/12/16 12:43:09;;;;;;;100.38;39.45;;;;;;;;;;5026726;28;20480;-57
2021/12/16 12:45:35;;;;;;;104.72;38.00;;;;;;;;;;5022074;28;20034;-58
2021/12/16 12:48:03;;;;;;;102.90;44.03;;;;;;;;;;5031676;28;20476;-59
2021/12/16 12:50:30;;;;;;;104.07;41.20;;;;;;;;;;5030350;28;20400;-58
2021/12/16 12:52:56;;;;;;;113.13;46.25;;;;;;;;;;5032256;28;20072;-58
2021/12/16 12:55:29;;;;;;;99.97;42.80;;;;;;;;;;5030339;28;20085;-58
2021/12/16 12:58:03;;;;;;;95.53;39.92;;;;;;;;;;5032208;28;20024;-58
2021/12/16 13:00:34;;;;;;;92.15;40.53;;;;;;;;;;5029951;28;20057;-57
2021/12/16 13:03:01;;;;;;;76.47;38.45;;;;;;;;;;5032378;28;20025;-57
2021/12/16 13:05:26;;;;;;;91.78;42.28;;;;;;;;;;5030324;28;20037;-58
2021/12/16 13:07:53;;;;;;;94.78;40.55;;;;;;;;;;5032063;28;20112;-57
2021/12/16 13:10:21;;;;;;;78.32;36.40;;;;;;;;;;5029412;28;20064;-58
2021/12/16 13:12:53;;;;;;;73.68;35.05;;;;;;;;;;5013507;28;20030;-57
2021/12/16 13:15:28;;;;;;;85.78;37.20;;;;;;;;;;5010437;28;20576;-57
2021/12/16 13:23:37;;;;;;;78.28;36.70;;;;;;;;;;5012586;28;20060;-57
2021/12/16 13:28:44;;;;;;;78.82;33.55;;;;;;;;;;5030685;28;20492;-57
2021/12/16 13:31:30;;;;;;;75.30;38.45;;;;;;;;;;5030460;28;20040;-57
2021/12/16 13:33:58;;;;;;;89.55;36.40;;;;;;;;;;5030416;28;20432;-57
2021/12/16 13:36:40;;;;;;;90.57;40.13;;;;;;;;;;5029587;28;20539;-57
2021/12/16 13:39:13;;;;;;;78.72;36.95;;;;;;;;;;5030575;28;20017;-57
2021/12/16 13:41:52;;;;;;;83.03;39.60;;;;;;;;;;5031189;28;20021;-57
2021/12/16 13:44:18;;;;;;;78.20;37.67;;;;;;;;;;5030242;28;20035;-57
2021/12/16 13:47:07;;;;;;;71.97;36.90;;;;;;;;;;5031514;28;20021;-57
2021/12/16 14:01:19;;;;;;;76.95;40.50;;;;;;;;;;5030356;28;20068;-57
2021/12/16 14:03:52;;;;;;;86.72;41.38;;;;;;;;;;5031608;28;20036;-57
2021/12/16 14:06:39;;;;;;;93.95;42.75;;;;;;;;;;5029694;28;20033;-57
2021/12/16 14:09:12;;;;;;;96.40;39.90;;;;;;;;;;5031589;28;20026;-57
2021/12/16 14:14:51;;;;;;;84.25;39.85;;;;;;;;;;5026728;28;20075;-57
2021/12/16 14:23:23;;;;;;;106.32;44.60;;;;;;;;;;5011720;28;20029;-57
2021/12/16 14:37:27;;;;;;;113.20;46.75;;;;;;;;;;5009872;28;20045;-61
2021/12/16 14:42:14;;;;;;;126.20;50.90;;;;;;;;;;5014794;28;20419;-57
2021/12/16 14:49:44;;;;;;;111.57;46.00;;;;;;;;;;5013477;28;20038;-57
2021/12/16 14:52:13;;;;;;;103.90;44.05;;;;;;;;;;5015359;28;20026;-57
2021/12/16 14:54:45;;;;;;;114.47;50.10;;;;;;;;;;5013292;28;20140;-56
2021/12/16 14:57:10;;;;;;;134.85;56.00;;;;;;;;;;5014788;28;20030;-57
2021/12/16 14:59:36;;;;;;;136.55;47.72;;;;;;;;;;5013369;28;20084;-57
2021/12/16 15:02:01;;;;;;;137.53;54.57;;;;;;;;;;5015122;28;20029;-57
2021/12/16 15:04:27;;;;;;;161.60;52.30;;;;;;;;;;5013010;28;20559;-57
2021/12/16 15:07:01;;;;;;;140.25;51.90;;;;;;;;;;5014901;28;20788;-57
2021/12/16 15:09:29;;;;;;;131.63;52.30;;;;;;;;;;5013027;28;20057;-57
2021/12/16 15:12:08;;;;;;;153.27;51.85;;;;;;;;;;5014727;28;20018;-57
2021/12/16 15:14:52;;;;;;;132.38;50.38;;;;;;;;;;5013420;28;20061;-57
2021/12/16 15:37:05;;;;;;;127.03;51.55;;;;;;;;;;5032723;28;20045;-57
2021/12/16 15:44:51;;;;;;;127.05;49.97;;;;;;;;;;5022162;28;20121;-57
2021/12/16 15:47:17;;;;;;;122.05;50.03;;;;;;;;;;5027485;28;20054;-57
2021/12/16 15:49:42;;;;;;;125.53;49.78;;;;;;;;;;5029778;28;20444;-57
2021/12/16 15:52:08;;;;;;;133.50;48.40;;;;;;;;;;5021610;28;20079;-57
2021/12/16 15:54:36;;;;;;;149.18;55.75;;;;;;;;;;5020096;28;20065;-57
2021/12/16 15:57:02;;;;;;;163.55;57.70;;;;;;;;;;5016598;28;20497;-57
2021/12/16 15:59:29;;;;;;;178.98;60.85;;;;;;;;;;5021154;28;20127;-57
2021/12/16 16:01:54;;;;;;;150.95;54.95;;;;;;;;;;5013641;28;20478;-57
2021/12/16 16:04:21;;;;;;;171.32;59.00;;;;;;;;;;5014126;28;20034;-57
2021/12/16 16:06:48;;;;;;;185.60;61.88;;;;;;;;;;5014762;28;20075;-57
2021/12/16 16:09:15;;;;;;;183.35;59.97;;;;;;;;;;5019495;28;20026;-57
2021/12/16 16:11:44;;;;;;;183.77;66.22;;;;;;;;;;5032765;28;20018;-57
2021/12/16 16:14:10;;;;;;;172.27;59.38;;;;;;;;;;5031993;28;20028;-57
2021/12/16 16:16:43;;;;;;;179.90;62.20;;;;;;;;;;5016040;28;20029;-57
2021/12/16 16:19:09;;;;;;;204.38;65.78;;;;;;;;;;5023893;28;20037;-57
2021/12/16 16:21:42;;;;;;;182.15;64.90;;;;;;;;;;5023049;28;20044;-57
2021/12/16 16:24:09;;;;;;;195.48;64.70;;;;;;;;;;5023172;28;20117;-57
2021/12/16 16:26:35;;;;;;;200.23;68.78;;;;;;;;;;5029401;28;20101;-56
2021/12/16 16:29:02;;;;;;;212.95;65.80;;;;;;;;;;5016722;28;20105;-56
2021/12/16 16:31:28;;;;;;;179.00;60.25;;;;;;;;;;5031110;28;20057;-56
2021/12/16 16:33:54;;;;;;;176.60;64.18;;;;;;;;;;5028077;28;20096;-56
2021/12/16 16:36:22;;;;;;;218.25;72.75;;;;;;;;;;5029855;28;20116;-56
2021/12/16 16:38:55;;;;;;;182.70;64.55;;;;;;;;;;5033243;28;20017;-56
2021/12/16 16:41:23;;;;;;;179.77;65.05;;;;;;;;;;5049864;28;20047;-57
2021/12/16 16:43:51;;;;;;;187.35;61.95;;;;;;;;;;5052081;28;20021;-56
2021/12/16 16:46:18;;;;;;;178.35;63.15;;;;;;;;;;5032394;28;20036;-56
2021/12/16 16:49:02;;;;;;;190.82;65.00;;;;;;;;;;5039914;28;20020;-57
2021/12/16 16:51:40;;;;;;;181.18;66.55;;;;;;;;;;5040061;28;20055;-57
2021/12/16 16:54:07;;;;;;;179.95;60.25;;;;;;;;;;5040129;28;20032;-57
2021/12/16 16:56:53;;;;;;;168.38;57.00;;;;;;;;;;5036317;28;20053;-57
2021/12/16 16:59:45;;;;;;;151.38;57.35;;;;;;;;;;5046671;28;20040;-57
2021/12/16 17:02:21;;;;;;;179.50;61.45;;;;;;;;;;5034786;28;20028;-57
2021/12/16 17:04:51;;;;;;;171.15;58.22;;;;;;;;;;5049370;28;20044;-57
2021/12/16 17:07:16;;;;;;;171.90;56.35;;;;;;;;;;5050279;28;20135;-57
2021/12/16 17:09:42;;;;;;;151.87;55.23;;;;;;;;;;5048923;28;20128;-57
2021/12/16 17:12:11;;;;;;;165.63;55.17;;;;;;;;;;5034321;28;21028;-57
2021/12/16 17:14:40;;;;;;;144.52;53.47;;;;;;;;;;5034709;28;20065;-57
2021/12/16 17:17:23;;;;;;;164.70;54.50;;;;;;;;;;5050588;28;20416;-57
2021/12/16 17:19:56;;;;;;;170.35;55.72;;;;;;;;;;5040899;28;20033;-57
2021/12/16 17:22:25;;;;;;;159.38;54.05;;;;;;;;;;5030421;28;20108;-57
2021/12/16 17:24:51;;;;;;;174.77;68.00;;;;;;;;;;5026975;28;20136;-57
2021/12/16 17:27:19;;;;;;;168.07;60.15;;;;;;;;;;5020329;28;20028;-57
2021/12/16 17:29:55;;;;;;;164.70;57.22;;;;;;;;;;5019149;28;20038;-57
2021/12/16 17:32:22;;;;;;;174.55;56.47;;;;;;;;;;5015663;28;20120;-57
2021/12/16 17:34:54;;;;;;;195.80;61.83;;;;;;;;;;5018025;28;20046;-57
2021/12/16 17:37:28;;;;;;;200.63;64.45;;;;;;;;;;5018199;28;20022;-57
2021/12/16 17:39:57;;;;;;;202.25;61.25;;;;;;;;;;5015250;28;20036;-57
2021/12/16 17:42:22;;;;;;;216.13;60.78;;;;;;;;;;5015808;28;20556;-57
2021/12/16 17:44:50;;;;;;;169.82;63.00;;;;;;;;;;5016276;28;20568;-57